Seabulk Arctic — WCY7054 — position and weather

sailwx.info

Track history (hours):
 
Tides and Currents Weather Stations Pressure Air Temp Water Temp Dewpoint Dewpoint Depression Visibility Wind Speed Wind Dir Waves Ship Positions

Seabulk Arctic

Owner: LIGHTSHIP TANKERS IV LLC, FORT LAUDERDALE, FL. More information available from US FCC via Universal Licensing System and Coast Guard Vessel Documentation Center.

Last reported at 2015-May-28 17:32 UTC. Time now 2015-May-28 18:15 UTC.
Position N 38°58' W 075°11'.

Type: Tanker. MMSI: 366826000.

Date/timePositionNaut miles runAvg speedWind from/ knotsBaromVisibWave heightAir tempDewpointWater temp
2015-May-28 17:32N 38°58' W 075°11'0 0.0
2015-May-28 16:32N 38°58' W 075°11'0 0.0
2015-May-28 15:32N 38°58' W 075°11'0 0.0
2015-May-28 14:32N 38°58' W 075°11'0 0.0
2015-May-28 13:32N 38°58' W 075°11'0 0.0
2015-May-28 12:32N 38°58' W 075°11'0 0.2
2015-May-28 11:29N 38°58' W 075°11'0 0.0
2015-May-28 10:29N 38°58' W 075°12'0 0.0
2015-May-28 09:26N 38°58' W 075°12'0 0.0
2015-May-28 08:14N 38°58' W 075°12'0 0.0
2015-May-28 07:29N 38°58' W 075°12'0 0.0
2015-May-28 06:14N 38°58' W 075°12'0 0.2
2015-May-28 05:32N 38°58' W 075°11'0 0.2
2015-May-28 04:32N 38°58' W 075°11'0 0.0
2015-May-28 03:32N 38°58' W 075°11'0 0.0
2015-May-28 02:32N 38°58' W 075°11'0 0.0
2015-May-28 01:32N 38°58' W 075°11'0 0.0
2015-May-28 00:32N 38°58' W 075°11'0 0.2
2015-May-27 23:32N 38°58' W 075°11'0 0.1
2015-May-27 22:26N 38°58' W 075°12'0 0.0
2015-May-27 21:29N 38°58' W 075°12'0 0.0
2015-May-27 20:32N 38°58' W 075°12'0 0.0
2015-May-27 19:32N 38°58' W 075°12'0 0.0
2015-May-27 18:32N 38°58' W 075°12'0 0.1
2015-May-27 17:32N 38°58' W 075°12'0 0.2
2015-May-27 16:32N 38°58' W 075°11'0 0.1
2015-May-27 15:32N 38°58' W 075°11'0 0.0
2015-May-27 14:32N 38°58' W 075°11'2 1.6
2015-May-27 13:33N 38°56' W 075°11'8 7.9
2015-May-27 12:33N 38°50' W 075°05'8 8.1
2015-May-27 11:33N 38°44' W 074°57'7 7.4
2015-May-27 10:33N 38°39' W 074°51'6 5.7
2015-May-27 09:33N 38°35' W 074°46'4 3.5
2015-May-27 08:31N 38°34' W 074°42'4 3.6
2015-May-27 07:23N 38°36' W 074°38'2 2.9
2015-May-27 06:33N 38°38' W 074°35'5 1.4
2015-May-27 03:03N 38°33' W 074°37'8 9.4
2015-May-27 02:15N 38°26' W 074°38'29014.0
2015-May-26 05:33N 33°49' W 076°26'44514.8
2015-May-24 23:33N 26°58' W 079°44'1716.8
2015-May-24 22:34N 26°41' W 079°45'1716.5
2015-May-24 21:34N 26°25' W 079°47'1616.1
2015-May-24 20:34N 26°09' W 079°47'1615.8
2015-May-24 19:34N 25°53' W 079°50'1615.6
2015-May-24 18:33N 25°38' W 079°54'27611.3
2015-May-23 18:00N 25°30' W 085°00'32013.3 080 / 131020.210.8 0.528.0
2015-May-22 18:00N 27°00' W 090°42'   090 / 91017.210.8 0.528.0
Track history (hours):
 
Tides and Currents Weather Stations Pressure Air Temp Water Temp Dewpoint Dewpoint Depression Visibility Wind Speed Wind Dir Waves Ship Positions

Seabulk Arctic

Owner: LIGHTSHIP TANKERS IV LLC, FORT LAUDERDALE, FL. More information available from US FCC via Universal Licensing System and Coast Guard Vessel Documentation Center.

Last reported at 2015-May-28 17:32 UTC. Time now 2015-May-28 18:15 UTC.
Position N 38°58' W 075°11'.

Type: Tanker. MMSI: 366826000.

Date/timePositionNaut miles runAvg speedWind from/ knotsBaromVisibWave heightAir tempDewpointWater temp
2015-May-28 17:32N 38°58' W 075°11'0 0.0
2015-May-28 16:32N 38°58' W 075°11'0 0.0
2015-May-28 15:32N 38°58' W 075°11'0 0.0
2015-May-28 14:32N 38°58' W 075°11'0 0.0
2015-May-28 13:32N 38°58' W 075°11'0 0.0
2015-May-28 12:32N 38°58' W 075°11'0 0.2
2015-May-28 11:29N 38°58' W 075°11'0 0.0
2015-May-28 10:29N 38°58' W 075°12'0 0.0
2015-May-28 09:26N 38°58' W 075°12'0 0.0
2015-May-28 08:14N 38°58' W 075°12'0 0.0
2015-May-28 07:29N 38°58' W 075°12'0 0.0
2015-May-28 06:14N 38°58' W 075°12'0 0.2
2015-May-28 05:32N 38°58' W 075°11'0 0.2
2015-May-28 04:32N 38°58' W 075°11'0 0.0
2015-May-28 03:32N 38°58' W 075°11'0 0.0
2015-May-28 02:32N 38°58' W 075°11'0 0.0
2015-May-28 01:32N 38°58' W 075°11'0 0.0
2015-May-28 00:32N 38°58' W 075°11'0 0.2
2015-May-27 23:32N 38°58' W 075°11'0 0.1
2015-May-27 22:26N 38°58' W 075°12'0 0.0
2015-May-27 21:29N 38°58' W 075°12'0 0.0
2015-May-27 20:32N 38°58' W 075°12'0 0.0
2015-May-27 19:32N 38°58' W 075°12'0 0.0
2015-May-27 18:32N 38°58' W 075°12'0 0.1
2015-May-27 17:32N 38°58' W 075°12'0 0.2
2015-May-27 16:32N 38°58' W 075°11'0 0.1
2015-May-27 15:32N 38°58' W 075°11'0 0.0
2015-May-27 14:32N 38°58' W 075°11'2 1.6
2015-May-27 13:33N 38°56' W 075°11'8 7.9
2015-May-27 12:33N 38°50' W 075°05'8 8.1
2015-May-27 11:33N 38°44' W 074°57'7 7.4
2015-May-27 10:33N 38°39' W 074°51'6 5.7
2015-May-27 09:33N 38°35' W 074°46'4 3.5
2015-May-27 08:31N 38°34' W 074°42'4 3.6
2015-May-27 07:23N 38°36' W 074°38'2 2.9
2015-May-27 06:33N 38°38' W 074°35'5 1.4
2015-May-27 03:03N 38°33' W 074°37'8 9.4
2015-May-27 02:15N 38°26' W 074°38'29014.0
2015-May-26 05:33N 33°49' W 076°26'44514.8
2015-May-24 23:33N 26°58' W 079°44'1716.8
2015-May-24 22:34N 26°41' W 079°45'1716.5
2015-May-24 21:34N 26°25' W 079°47'1616.1
2015-May-24 20:34N 26°09' W 079°47'1615.8
2015-May-24 19:34N 25°53' W 079°50'1615.6
2015-May-24 18:33N 25°38' W 079°54'27611.3
2015-May-23 18:00N 25°30' W 085°00'32013.3 080 / 131020.210.8 0.528.0
2015-May-22 18:00N 27°00' W 090°42'   090 / 91017.210.8 0.528.0

Dump ship's entire track history